sensor_id;sensor_type;location;lat;lon;timestamp;P1;durP1;ratioP1;P2;durP2;ratioP2
62010;SDS011;47967;51.756;10.174;2022-08-21T00:02:52;8.07;;;5.32;;
62010;SDS011;47967;51.756;10.174;2022-08-21T00:06:59;7.97;;;5.15;;
62010;SDS011;47967;51.756;10.174;2022-08-21T00:11:03;8.07;;;5.30;;
62010;SDS011;47967;51.756;10.174;2022-08-21T00:15:07;8.13;;;5.68;;
62010;SDS011;47967;51.756;10.174;2022-08-21T00:19:12;9.98;;;5.35;;
62010;SDS011;47967;51.756;10.174;2022-08-21T00:23:16;7.78;;;5.18;;
62010;SDS011;47967;51.756;10.174;2022-08-21T00:27:19;5.13;;;4.60;;
62010;SDS011;47967;51.756;10.174;2022-08-21T00:31:22;9.27;;;5.00;;
62010;SDS011;47967;51.756;10.174;2022-08-21T00:35:26;9.43;;;5.23;;
62010;SDS011;47967;51.756;10.174;2022-08-21T00:39:32;10.00;;;4.90;;
62010;SDS011;47967;51.756;10.174;2022-08-21T00:43:36;10.07;;;5.75;;
62010;SDS011;47967;51.756;10.174;2022-08-21T00:47:40;8.80;;;5.32;;
62010;SDS011;47967;51.756;10.174;2022-08-21T00:51:44;11.83;;;5.60;;
62010;SDS011;47967;51.756;10.174;2022-08-21T00:55:52;8.13;;;5.80;;
62010;SDS011;47967;51.756;10.174;2022-08-21T00:59:57;9.60;;;5.72;;
62010;SDS011;47967;51.756;10.174;2022-08-21T01:04:02;9.35;;;5.22;;
62010;SDS011;47967;51.756;10.174;2022-08-21T01:08:05;10.02;;;4.88;;
62010;SDS011;47967;51.756;10.174;2022-08-21T01:12:10;6.20;;;4.50;;
62010;SDS011;47967;51.756;10.174;2022-08-21T01:16:15;8.50;;;4.80;;
62010;SDS011;47967;51.756;10.174;2022-08-21T01:20:21;8.40;;;5.35;;
62010;SDS011;47967;51.756;10.174;2022-08-21T01:24:34;10.48;;;5.72;;
62010;SDS011;47967;51.756;10.174;2022-08-21T01:28:37;9.02;;;5.50;;
62010;SDS011;47967;51.756;10.174;2022-08-21T01:32:43;9.57;;;5.57;;
62010;SDS011;47967;51.756;10.174;2022-08-21T01:36:47;6.10;;;4.82;;
62010;SDS011;47967;51.756;10.174;2022-08-21T01:40:51;7.70;;;5.03;;
62010;SDS011;47967;51.756;10.174;2022-08-21T01:44:57;6.90;;;4.72;;
62010;SDS011;47967;51.756;10.174;2022-08-21T01:49:06;8.18;;;4.28;;
62010;SDS011;47967;51.756;10.174;2022-08-21T01:53:27;7.95;;;4.80;;
62010;SDS011;47967;51.756;10.174;2022-08-21T01:57:35;5.15;;;4.13;;
62010;SDS011;47967;51.756;10.174;2022-08-21T02:01:38;4.82;;;4.05;;
62010;SDS011;47967;51.756;10.174;2022-08-21T02:05:41;8.07;;;4.90;;
62010;SDS011;47967;51.756;10.174;2022-08-21T02:09:44;6.57;;;4.90;;
62010;SDS011;47967;51.756;10.174;2022-08-21T02:13:48;16.27;;;5.70;;
62010;SDS011;47967;51.756;10.174;2022-08-21T02:17:51;9.68;;;6.00;;
62010;SDS011;47967;51.756;10.174;2022-08-21T02:21:56;8.30;;;5.22;;
62010;SDS011;47967;51.756;10.174;2022-08-21T02:25:59;5.40;;;4.33;;
62010;SDS011;47967;51.756;10.174;2022-08-21T02:30:06;7.72;;;4.38;;
62010;SDS011;47967;51.756;10.174;2022-08-21T02:34:10;5.05;;;3.88;;
62010;SDS011;47967;51.756;10.174;2022-08-21T02:38:13;6.87;;;3.90;;
62010;SDS011;47967;51.756;10.174;2022-08-21T02:42:17;9.90;;;5.38;;
62010;SDS011;47967;51.756;10.174;2022-08-21T02:46:22;9.73;;;5.03;;
62010;SDS011;47967;51.756;10.174;2022-08-21T02:50:25;8.02;;;4.85;;
62010;SDS011;47967;51.756;10.174;2022-08-21T02:54:30;12.88;;;5.50;;
62010;SDS011;47967;51.756;10.174;2022-08-21T02:58:33;16.37;;;5.63;;
62010;SDS011;47967;51.756;10.174;2022-08-21T03:02:41;11.32;;;5.50;;
62010;SDS011;47967;51.756;10.174;2022-08-21T03:06:46;8.90;;;5.75;;
62010;SDS011;47967;51.756;10.174;2022-08-21T03:10:50;8.47;;;5.53;;
62010;SDS011;47967;51.756;10.174;2022-08-21T03:14:54;8.90;;;6.75;;
62010;SDS011;47967;51.756;10.174;2022-08-21T03:18:58;8.73;;;5.63;;
62010;SDS011;47967;51.756;10.174;2022-08-21T03:23:01;8.60;;;5.03;;
62010;SDS011;47967;51.756;10.174;2022-08-21T03:27:12;5.65;;;4.03;;
62010;SDS011;47967;51.756;10.174;2022-08-21T03:31:15;4.23;;;3.70;;
62010;SDS011;47967;51.756;10.174;2022-08-21T03:43:25;6.82;;;3.95;;
62010;SDS011;47967;51.756;10.174;2022-08-21T03:47:31;6.85;;;4.05;;
62010;SDS011;47967;51.756;10.174;2022-08-21T03:51:35;6.25;;;3.90;;
62010;SDS011;47967;51.756;10.174;2022-08-21T03:55:38;5.45;;;3.78;;
62010;SDS011;47967;51.756;10.174;2022-08-21T03:59:40;4.53;;;3.60;;
62010;SDS011;47967;51.756;10.174;2022-08-21T04:03:44;5.20;;;4.30;;
62010;SDS011;47967;51.756;10.174;2022-08-21T04:07:48;4.30;;;3.70;;
62010;SDS011;47967;51.756;10.174;2022-08-21T04:11:50;5.32;;;4.15;;
62010;SDS011;47967;51.756;10.174;2022-08-21T04:15:53;5.05;;;4.03;;
62010;SDS011;47967;51.756;10.174;2022-08-21T04:19:56;6.47;;;4.10;;
62010;SDS011;47967;51.756;10.174;2022-08-21T04:24:00;6.03;;;4.00;;
62010;SDS011;47967;51.756;10.174;2022-08-21T04:28:03;5.07;;;4.05;;
62010;SDS011;47967;51.756;10.174;2022-08-21T04:32:06;4.68;;;4.03;;
62010;SDS011;47967;51.756;10.174;2022-08-21T04:36:09;6.23;;;4.47;;
62010;SDS011;47967;51.756;10.174;2022-08-21T04:40:13;6.97;;;5.05;;
62010;SDS011;47967;51.756;10.174;2022-08-21T04:44:17;8.75;;;5.30;;
62010;SDS011;47967;51.756;10.174;2022-08-21T04:48:21;8.80;;;5.90;;
62010;SDS011;47967;51.756;10.174;2022-08-21T04:52:25;23.88;;;6.03;;
62010;SDS011;47967;51.756;10.174;2022-08-21T04:56:29;13.97;;;6.80;;
62010;SDS011;47967;51.756;10.174;2022-08-21T05:00:34;8.70;;;6.03;;
62010;SDS011;47967;51.756;10.174;2022-08-21T05:04:39;10.43;;;6.43;;
62010;SDS011;47967;51.756;10.174;2022-08-21T05:08:46;12.05;;;5.88;;
62010;SDS011;47967;51.756;10.174;2022-08-21T05:12:59;8.88;;;5.50;;
62010;SDS011;47967;51.756;10.174;2022-08-21T05:17:02;7.82;;;5.40;;
62010;SDS011;47967;51.756;10.174;2022-08-21T05:21:05;7.63;;;5.05;;
62010;SDS011;47967;51.756;10.174;2022-08-21T05:25:08;7.30;;;5.10;;
62010;SDS011;47967;51.756;10.174;2022-08-21T05:29:15;6.63;;;4.80;;
62010;SDS011;47967;51.756;10.174;2022-08-21T05:33:19;7.63;;;5.18;;
62010;SDS011;47967;51.756;10.174;2022-08-21T05:37:21;8.50;;;5.17;;
62010;SDS011;47967;51.756;10.174;2022-08-21T05:41:24;8.97;;;6.07;;
62010;SDS011;47967;51.756;10.174;2022-08-21T05:45:30;8.17;;;5.73;;
62010;SDS011;47967;51.756;10.174;2022-08-21T05:49:44;8.85;;;6.25;;
62010;SDS011;47967;51.756;10.174;2022-08-21T05:53:46;12.30;;;5.97;;
62010;SDS011;47967;51.756;10.174;2022-08-21T05:57:49;8.68;;;6.38;;
62010;SDS011;47967;51.756;10.174;2022-08-21T06:01:53;8.43;;;6.10;;
62010;SDS011;47967;51.756;10.174;2022-08-21T06:05:56;10.60;;;6.68;;
62010;SDS011;47967;51.756;10.174;2022-08-21T06:09:59;7.15;;;5.40;;
62010;SDS011;47967;51.756;10.174;2022-08-21T06:14:02;6.65;;;4.95;;
62010;SDS011;47967;51.756;10.174;2022-08-21T06:18:06;7.57;;;5.65;;
62010;SDS011;47967;51.756;10.174;2022-08-21T06:22:09;6.60;;;5.32;;
62010;SDS011;47967;51.756;10.174;2022-08-21T06:26:13;7.63;;;5.17;;
62010;SDS011;47967;51.756;10.174;2022-08-21T06:30:16;6.93;;;5.20;;
62010;SDS011;47967;51.756;10.174;2022-08-21T06:34:20;6.13;;;4.60;;
62010;SDS011;47967;51.756;10.174;2022-08-21T06:38:24;6.10;;;4.57;;
62010;SDS011;47967;51.756;10.174;2022-08-21T06:42:27;5.80;;;4.23;;
62010;SDS011;47967;51.756;10.174;2022-08-21T06:46:29;5.90;;;4.47;;
62010;SDS011;47967;51.756;10.174;2022-08-21T06:50:34;4.80;;;4.03;;
62010;SDS011;47967;51.756;10.174;2022-08-21T06:54:36;5.15;;;4.38;;
62010;SDS011;47967;51.756;10.174;2022-08-21T06:58:40;6.85;;;5.18;;
62010;SDS011;47967;51.756;10.174;2022-08-21T07:02:42;5.93;;;4.85;;
62010;SDS011;47967;51.756;10.174;2022-08-21T07:06:46;5.68;;;4.53;;
62010;SDS011;47967;51.756;10.174;2022-08-21T07:10:49;5.28;;;4.43;;
62010;SDS011;47967;51.756;10.174;2022-08-21T07:14:52;6.30;;;4.90;;
62010;SDS011;47967;51.756;10.174;2022-08-21T07:18:55;6.57;;;4.67;;
62010;SDS011;47967;51.756;10.174;2022-08-21T07:23:00;6.10;;;5.13;;
62010;SDS011;47967;51.756;10.174;2022-08-21T07:27:05;6.68;;;4.70;;
62010;SDS011;47967;51.756;10.174;2022-08-21T07:31:10;6.80;;;5.07;;
62010;SDS011;47967;51.756;10.174;2022-08-21T07:35:16;6.63;;;5.60;;
62010;SDS011;47967;51.756;10.174;2022-08-21T07:39:21;8.75;;;6.00;;
62010;SDS011;47967;51.756;10.174;2022-08-21T07:43:24;9.15;;;5.72;;
62010;SDS011;47967;51.756;10.174;2022-08-21T07:47:26;8.10;;;5.70;;
62010;SDS011;47967;51.756;10.174;2022-08-21T07:51:42;8.30;;;6.18;;
62010;SDS011;47967;51.756;10.174;2022-08-21T07:55:46;8.27;;;5.57;;
62010;SDS011;47967;51.756;10.174;2022-08-21T07:59:50;8.38;;;6.20;;
62010;SDS011;47967;51.756;10.174;2022-08-21T08:03:52;9.35;;;6.72;;
62010;SDS011;47967;51.756;10.174;2022-08-21T08:07:56;9.90;;;6.72;;
62010;SDS011;47967;51.756;10.174;2022-08-21T08:12:00;8.82;;;6.55;;
62010;SDS011;47967;51.756;10.174;2022-08-21T08:16:03;10.65;;;6.97;;
62010;SDS011;47967;51.756;10.174;2022-08-21T08:20:06;10.27;;;6.95;;
62010;SDS011;47967;51.756;10.174;2022-08-21T08:24:10;10.55;;;6.75;;
62010;SDS011;47967;51.756;10.174;2022-08-21T08:28:21;10.13;;;7.00;;
62010;SDS011;47967;51.756;10.174;2022-08-21T08:32:24;11.75;;;7.05;;
62010;SDS011;47967;51.756;10.174;2022-08-21T08:36:31;12.05;;;6.68;;
62010;SDS011;47967;51.756;10.174;2022-08-21T08:40:37;9.85;;;6.03;;
62010;SDS011;47967;51.756;10.174;2022-08-21T08:44:46;11.10;;;5.65;;
62010;SDS011;47967;51.756;10.174;2022-08-21T08:48:52;9.77;;;6.07;;
62010;SDS011;47967;51.756;10.174;2022-08-21T08:52:59;8.85;;;5.80;;
62010;SDS011;47967;51.756;10.174;2022-08-21T08:57:07;8.30;;;5.80;;
62010;SDS011;47967;51.756;10.174;2022-08-21T09:01:15;10.07;;;6.05;;
62010;SDS011;47967;51.756;10.174;2022-08-21T09:05:22;9.02;;;6.13;;
62010;SDS011;47967;51.756;10.174;2022-08-21T09:09:31;8.40;;;5.60;;
62010;SDS011;47967;51.756;10.174;2022-08-21T09:13:45;10.52;;;5.85;;
62010;SDS011;47967;51.756;10.174;2022-08-21T09:18:08;13.48;;;6.63;;
62010;SDS011;47967;51.756;10.174;2022-08-21T09:22:28;10.15;;;5.53;;
62010;SDS011;47967;51.756;10.174;2022-08-21T09:26:45;8.55;;;4.70;;
62010;SDS011;47967;51.756;10.174;2022-08-21T09:30:55;10.10;;;4.68;;
62010;SDS011;47967;51.756;10.174;2022-08-21T09:35:06;9.50;;;4.70;;
62010;SDS011;47967;51.756;10.174;2022-08-21T09:39:12;9.55;;;4.70;;
62010;SDS011;47967;51.756;10.174;2022-08-21T09:43:24;10.05;;;4.93;;
62010;SDS011;47967;51.756;10.174;2022-08-21T09:47:27;10.88;;;4.43;;
62010;SDS011;47967;51.756;10.174;2022-08-21T09:51:33;9.82;;;5.05;;
62010;SDS011;47967;51.756;10.174;2022-08-21T09:55:38;13.50;;;4.65;;
62010;SDS011;47967;51.756;10.174;2022-08-21T10:00:09;11.38;;;4.53;;
62010;SDS011;47967;51.756;10.174;2022-08-21T10:04:19;10.50;;;4.25;;
62010;SDS011;47967;51.756;10.174;2022-08-21T10:08:25;9.65;;;4.25;;
62010;SDS011;47967;51.756;10.174;2022-08-21T10:12:33;8.60;;;3.80;;
62010;SDS011;47967;51.756;10.174;2022-08-21T10:16:48;9.30;;;4.22;;
62010;SDS011;47967;51.756;10.174;2022-08-21T10:21:01;11.48;;;3.88;;
62010;SDS011;47967;51.756;10.174;2022-08-21T10:25:16;6.23;;;3.43;;
62010;SDS011;47967;51.756;10.174;2022-08-21T10:29:24;10.50;;;4.13;;
62010;SDS011;47967;51.756;10.174;2022-08-21T10:33:44;6.63;;;3.50;;
62010;SDS011;47967;51.756;10.174;2022-08-21T10:37:59;13.57;;;3.97;;
62010;SDS011;47967;51.756;10.174;2022-08-21T10:42:40;7.30;;;3.25;;
62010;SDS011;47967;51.756;10.174;2022-08-21T10:46:52;7.75;;;3.05;;
62010;SDS011;47967;51.756;10.174;2022-08-21T10:51:04;11.82;;;3.22;;
62010;SDS011;47967;51.756;10.174;2022-08-21T10:55:13;7.10;;;3.40;;
62010;SDS011;47967;51.756;10.174;2022-08-21T10:59:24;6.97;;;3.38;;
62010;SDS011;47967;51.756;10.174;2022-08-21T11:03:33;11.13;;;3.35;;
62010;SDS011;47967;51.756;10.174;2022-08-21T11:07:43;9.00;;;3.75;;
62010;SDS011;47967;51.756;10.174;2022-08-21T11:11:50;8.80;;;3.10;;
62010;SDS011;47967;51.756;10.174;2022-08-21T11:16:16;10.77;;;3.67;;
62010;SDS011;47967;51.756;10.174;2022-08-21T11:20:27;7.57;;;2.80;;
62010;SDS011;47967;51.756;10.174;2022-08-21T11:24:35;7.22;;;3.00;;
62010;SDS011;47967;51.756;10.174;2022-08-21T11:28:46;5.38;;;2.80;;
62010;SDS011;47967;51.756;10.174;2022-08-21T11:37:10;6.75;;;2.80;;
62010;SDS011;47967;51.756;10.174;2022-08-21T11:41:22;7.65;;;2.97;;
62010;SDS011;47967;51.756;10.174;2022-08-21T11:45:30;8.77;;;2.92;;
62010;SDS011;47967;51.756;10.174;2022-08-21T11:49:43;9.52;;;2.53;;
62010;SDS011;47967;51.756;10.174;2022-08-21T11:53:52;5.80;;;2.10;;
62010;SDS011;47967;51.756;10.174;2022-08-21T11:58:08;3.55;;;2.20;;
62010;SDS011;47967;51.756;10.174;2022-08-21T12:02:14;5.63;;;2.22;;
62010;SDS011;47967;51.756;10.174;2022-08-21T12:06:29;6.60;;;2.80;;
62010;SDS011;47967;51.756;10.174;2022-08-21T12:10:35;5.43;;;2.33;;
62010;SDS011;47967;51.756;10.174;2022-08-21T12:14:45;3.47;;;2.05;;
62010;SDS011;47967;51.756;10.174;2022-08-21T12:18:49;3.40;;;2.20;;
62010;SDS011;47967;51.756;10.174;2022-08-21T12:23:17;5.00;;;2.30;;
62010;SDS011;47967;51.756;10.174;2022-08-21T12:27:27;5.50;;;2.22;;
62010;SDS011;47967;51.756;10.174;2022-08-21T12:31:31;11.93;;;2.20;;
62010;SDS011;47967;51.756;10.174;2022-08-21T12:39:42;5.07;;;2.10;;
62010;SDS011;47967;51.756;10.174;2022-08-21T12:43:47;6.47;;;2.30;;
62010;SDS011;47967;51.756;10.174;2022-08-21T12:47:56;4.72;;;2.00;;
62010;SDS011;47967;51.756;10.174;2022-08-21T12:52:03;4.45;;;1.80;;
62010;SDS011;47967;51.756;10.174;2022-08-21T12:56:13;4.50;;;1.90;;
62010;SDS011;47967;51.756;10.174;2022-08-21T13:00:20;5.00;;;2.10;;
62010;SDS011;47967;51.756;10.174;2022-08-21T13:04:27;7.00;;;2.33;;
62010;SDS011;47967;51.756;10.174;2022-08-21T13:12:47;5.75;;;1.83;;
62010;SDS011;47967;51.756;10.174;2022-08-21T13:16:52;5.38;;;2.00;;
62010;SDS011;47967;51.756;10.174;2022-08-21T13:21:02;5.30;;;1.80;;
62010;SDS011;47967;51.756;10.174;2022-08-21T13:25:09;6.15;;;2.15;;
62010;SDS011;47967;51.756;10.174;2022-08-21T13:29:14;3.88;;;1.80;;
62010;SDS011;47967;51.756;10.174;2022-08-21T13:33:25;5.50;;;1.77;;
62010;SDS011;47967;51.756;10.174;2022-08-21T13:37:38;3.20;;;1.60;;
62010;SDS011;47967;51.756;10.174;2022-08-21T13:41:43;3.63;;;1.83;;
62010;SDS011;47967;51.756;10.174;2022-08-21T13:45:50;4.05;;;2.00;;
62010;SDS011;47967;51.756;10.174;2022-08-21T13:49:55;3.72;;;1.67;;
62010;SDS011;47967;51.756;10.174;2022-08-21T13:53:59;5.65;;;1.67;;
62010;SDS011;47967;51.756;10.174;2022-08-21T13:58:03;4.70;;;1.73;;
62010;SDS011;47967;51.756;10.174;2022-08-21T14:02:11;4.80;;;1.98;;
62010;SDS011;47967;51.756;10.174;2022-08-21T14:06:19;2.90;;;1.73;;
62010;SDS011;47967;51.756;10.174;2022-08-21T14:10:23;4.18;;;1.67;;
62010;SDS011;47967;51.756;10.174;2022-08-21T14:14:30;3.90;;;1.65;;
62010;SDS011;47967;51.756;10.174;2022-08-21T14:18:42;3.67;;;1.60;;
62010;SDS011;47967;51.756;10.174;2022-08-21T14:22:46;2.55;;;1.48;;
62010;SDS011;47967;51.756;10.174;2022-08-21T14:26:49;3.83;;;1.33;;
62010;SDS011;47967;51.756;10.174;2022-08-21T14:30:54;2.88;;;1.42;;
62010;SDS011;47967;51.756;10.174;2022-08-21T14:35:00;3.22;;;1.40;;
62010;SDS011;47967;51.756;10.174;2022-08-21T14:39:03;3.47;;;1.35;;
62010;SDS011;47967;51.756;10.174;2022-08-21T14:43:06;3.20;;;1.52;;
62010;SDS011;47967;51.756;10.174;2022-08-21T14:47:09;1.52;;;1.20;;
62010;SDS011;47967;51.756;10.174;2022-08-21T14:51:13;5.80;;;1.77;;
62010;SDS011;47967;51.756;10.174;2022-08-21T14:55:16;3.17;;;1.40;;
62010;SDS011;47967;51.756;10.174;2022-08-21T14:59:20;3.03;;;1.38;;
62010;SDS011;47967;51.756;10.174;2022-08-21T15:03:23;5.45;;;1.60;;
62010;SDS011;47967;51.756;10.174;2022-08-21T15:07:27;5.28;;;1.67;;
62010;SDS011;47967;51.756;10.174;2022-08-21T15:11:30;4.47;;;1.98;;
62010;SDS011;47967;51.756;10.174;2022-08-21T15:15:43;6.82;;;1.80;;
62010;SDS011;47967;51.756;10.174;2022-08-21T15:19:47;4.55;;;1.60;;
62010;SDS011;47967;51.756;10.174;2022-08-21T15:23:51;2.90;;;1.55;;
62010;SDS011;47967;51.756;10.174;2022-08-21T15:27:54;5.05;;;1.55;;
62010;SDS011;47967;51.756;10.174;2022-08-21T15:31:58;3.83;;;2.13;;
62010;SDS011;47967;51.756;10.174;2022-08-21T15:36:02;4.32;;;1.77;;
62010;SDS011;47967;51.756;10.174;2022-08-21T15:40:07;2.60;;;1.60;;
62010;SDS011;47967;51.756;10.174;2022-08-21T15:44:11;5.22;;;1.45;;
62010;SDS011;47967;51.756;10.174;2022-08-21T15:48:15;3.50;;;1.50;;
62010;SDS011;47967;51.756;10.174;2022-08-21T15:52:18;2.45;;;1.20;;
62010;SDS011;47967;51.756;10.174;2022-08-21T15:56:26;2.65;;;1.20;;
62010;SDS011;47967;51.756;10.174;2022-08-21T16:04:38;3.95;;;1.45;;
62010;SDS011;47967;51.756;10.174;2022-08-21T16:08:41;3.05;;;1.42;;
62010;SDS011;47967;51.756;10.174;2022-08-21T16:12:46;2.08;;;1.20;;
62010;SDS011;47967;51.756;10.174;2022-08-21T16:16:52;4.13;;;1.50;;
62010;SDS011;47967;51.756;10.174;2022-08-21T16:20:55;2.78;;;1.20;;
62010;SDS011;47967;51.756;10.174;2022-08-21T16:24:58;4.13;;;1.58;;
62010;SDS011;47967;51.756;10.174;2022-08-21T16:29:04;2.97;;;1.20;;
62010;SDS011;47967;51.756;10.174;2022-08-21T16:33:10;3.47;;;1.30;;
62010;SDS011;47967;51.756;10.174;2022-08-21T16:37:20;2.70;;;1.30;;
62010;SDS011;47967;51.756;10.174;2022-08-21T16:41:26;3.30;;;1.50;;
62010;SDS011;47967;51.756;10.174;2022-08-21T16:45:33;3.08;;;1.20;;
62010;SDS011;47967;51.756;10.174;2022-08-21T16:49:36;3.97;;;1.65;;
62010;SDS011;47967;51.756;10.174;2022-08-21T16:53:39;3.13;;;1.30;;
62010;SDS011;47967;51.756;10.174;2022-08-21T16:57:42;2.70;;;1.10;;
62010;SDS011;47967;51.756;10.174;2022-08-21T17:01:47;3.58;;;1.48;;
62010;SDS011;47967;51.756;10.174;2022-08-21T17:05:49;2.13;;;1.20;;
62010;SDS011;47967;51.756;10.174;2022-08-21T17:09:52;1.85;;;1.33;;
62010;SDS011;47967;51.756;10.174;2022-08-21T17:13:55;2.90;;;1.23;;
62010;SDS011;47967;51.756;10.174;2022-08-21T17:18:00;4.32;;;1.40;;
62010;SDS011;47967;51.756;10.174;2022-08-21T17:22:05;2.50;;;1.30;;
62010;SDS011;47967;51.756;10.174;2022-08-21T17:26:08;3.17;;;1.33;;
62010;SDS011;47967;51.756;10.174;2022-08-21T17:30:14;4.18;;;1.38;;
62010;SDS011;47967;51.756;10.174;2022-08-21T17:34:18;3.80;;;2.08;;
62010;SDS011;47967;51.756;10.174;2022-08-21T17:38:21;2.08;;;1.20;;
62010;SDS011;47967;51.756;10.174;2022-08-21T17:42:28;4.85;;;1.42;;
62010;SDS011;47967;51.756;10.174;2022-08-21T17:46:30;3.05;;;1.50;;
62010;SDS011;47967;51.756;10.174;2022-08-21T17:50:34;3.78;;;1.70;;
62010;SDS011;47967;51.756;10.174;2022-08-21T17:54:37;3.30;;;1.58;;
62010;SDS011;47967;51.756;10.174;2022-08-21T17:58:45;5.78;;;1.80;;
62010;SDS011;47967;51.756;10.174;2022-08-21T18:02:58;3.50;;;1.50;;
62010;SDS011;47967;51.756;10.174;2022-08-21T18:11:06;2.90;;;1.40;;
62010;SDS011;47967;51.756;10.174;2022-08-21T18:15:18;2.67;;;1.40;;
62010;SDS011;47967;51.756;10.174;2022-08-21T18:19:22;5.35;;;1.63;;
62010;SDS011;47967;51.756;10.174;2022-08-21T18:23:27;5.10;;;1.55;;
62010;SDS011;47967;51.756;10.174;2022-08-21T18:27:45;3.92;;;1.85;;
62010;SDS011;47967;51.756;10.174;2022-08-21T18:31:49;3.97;;;1.75;;
62010;SDS011;47967;51.756;10.174;2022-08-21T18:35:52;4.68;;;1.60;;
62010;SDS011;47967;51.756;10.174;2022-08-21T18:39:56;5.45;;;1.63;;
62010;SDS011;47967;51.756;10.174;2022-08-21T18:43:59;3.13;;;2.00;;
62010;SDS011;47967;51.756;10.174;2022-08-21T18:48:04;3.65;;;2.58;;
62010;SDS011;47967;51.756;10.174;2022-08-21T18:52:11;5.20;;;1.70;;
62010;SDS011;47967;51.756;10.174;2022-08-21T18:56:35;4.88;;;1.73;;
62010;SDS011;47967;51.756;10.174;2022-08-21T19:00:39;4.60;;;1.83;;
62010;SDS011;47967;51.756;10.174;2022-08-21T19:04:46;3.63;;;1.88;;
62010;SDS011;47967;51.756;10.174;2022-08-21T19:08:49;3.15;;;1.60;;
62010;SDS011;47967;51.756;10.174;2022-08-21T19:12:53;1.80;;;1.70;;
62010;SDS011;47967;51.756;10.174;2022-08-21T19:16:58;2.67;;;1.70;;
62010;SDS011;47967;51.756;10.174;2022-08-21T19:21:01;9.38;;;1.73;;
62010;SDS011;47967;51.756;10.174;2022-08-21T19:25:05;2.97;;;1.90;;
62010;SDS011;47967;51.756;10.174;2022-08-21T19:29:10;5.18;;;2.28;;
62010;SDS011;47967;51.756;10.174;2022-08-21T19:33:20;3.17;;;1.90;;
62010;SDS011;47967;51.756;10.174;2022-08-21T19:37:27;2.97;;;1.92;;
62010;SDS011;47967;51.756;10.174;2022-08-21T19:41:31;4.35;;;2.25;;
62010;SDS011;47967;51.756;10.174;2022-08-21T19:45:38;3.55;;;2.22;;
62010;SDS011;47967;51.756;10.174;2022-08-21T19:49:42;3.95;;;2.10;;
62010;SDS011;47967;51.756;10.174;2022-08-21T19:53:50;8.75;;;2.50;;
62010;SDS011;47967;51.756;10.174;2022-08-21T19:57:57;3.70;;;1.85;;
62010;SDS011;47967;51.756;10.174;2022-08-21T20:02:02;5.32;;;2.40;;
62010;SDS011;47967;51.756;10.174;2022-08-21T20:06:06;4.40;;;2.00;;
62010;SDS011;47967;51.756;10.174;2022-08-21T20:10:09;2.80;;;2.00;;
62010;SDS011;47967;51.756;10.174;2022-08-21T20:14:12;8.15;;;2.38;;
62010;SDS011;47967;51.756;10.174;2022-08-21T20:18:20;4.80;;;2.20;;
62010;SDS011;47967;51.756;10.174;2022-08-21T20:22:27;6.43;;;2.40;;
